sensor_id;sensor_type;location;lat;lon;timestamp;P1;durP1;ratioP1;P2;durP2;ratioP2
46757;SDS011;32509;47.750;-3.396;2022-07-22T00:00:42;4.20;;;3.13;;
46757;SDS011;32509;47.750;-3.396;2022-07-22T00:03:09;4.47;;;3.83;;
46757;SDS011;32509;47.750;-3.396;2022-07-22T00:05:35;8.00;;;5.20;;
46757;SDS011;32509;47.750;-3.396;2022-07-22T00:08:01;6.50;;;3.95;;
46757;SDS011;32509;47.750;-3.396;2022-07-22T00:10:27;4.90;;;3.35;;
46757;SDS011;32509;47.750;-3.396;2022-07-22T00:12:53;5.68;;;4.53;;
46757;SDS011;32509;47.750;-3.396;2022-07-22T00:15:18;8.05;;;4.00;;
46757;SDS011;32509;47.750;-3.396;2022-07-22T00:17:44;5.47;;;3.80;;
46757;SDS011;32509;47.750;-3.396;2022-07-22T00:20:10;5.03;;;4.10;;
46757;SDS011;32509;47.750;-3.396;2022-07-22T00:22:36;6.10;;;3.67;;
46757;SDS011;32509;47.750;-3.396;2022-07-22T00:25:02;4.63;;;3.83;;
46757;SDS011;32509;47.750;-3.396;2022-07-22T00:27:28;4.25;;;3.78;;
46757;SDS011;32509;47.750;-3.396;2022-07-22T00:29:54;7.05;;;4.60;;
46757;SDS011;32509;47.750;-3.396;2022-07-22T00:32:20;6.07;;;4.45;;
46757;SDS011;32509;47.750;-3.396;2022-07-22T00:34:45;7.57;;;4.72;;
46757;SDS011;32509;47.750;-3.396;2022-07-22T00:37:11;4.03;;;3.72;;
46757;SDS011;32509;47.750;-3.396;2022-07-22T00:39:37;4.97;;;3.90;;
46757;SDS011;32509;47.750;-3.396;2022-07-22T00:42:03;5.75;;;4.22;;
46757;SDS011;32509;47.750;-3.396;2022-07-22T00:44:29;4.32;;;3.95;;
46757;SDS011;32509;47.750;-3.396;2022-07-22T00:46:54;8.75;;;5.18;;
46757;SDS011;32509;47.750;-3.396;2022-07-22T00:49:20;5.97;;;4.78;;
46757;SDS011;32509;47.750;-3.396;2022-07-22T00:51:46;7.18;;;5.25;;
46757;SDS011;32509;47.750;-3.396;2022-07-22T00:57:24;7.63;;;5.18;;
46757;SDS011;32509;47.750;-3.396;2022-07-22T00:59:50;6.47;;;4.30;;
46757;SDS011;32509;47.750;-3.396;2022-07-22T01:02:16;8.90;;;4.20;;
46757;SDS011;32509;47.750;-3.396;2022-07-22T01:04:42;6.53;;;3.85;;
46757;SDS011;32509;47.750;-3.396;2022-07-22T01:07:08;4.55;;;3.72;;
46757;SDS011;32509;47.750;-3.396;2022-07-22T01:09:33;5.13;;;4.72;;
46757;SDS011;32509;47.750;-3.396;2022-07-22T01:12:00;6.35;;;5.45;;
46757;SDS011;32509;47.750;-3.396;2022-07-22T01:14:26;5.22;;;4.60;;
46757;SDS011;32509;47.750;-3.396;2022-07-22T01:16:52;7.93;;;5.07;;
46757;SDS011;32509;47.750;-3.396;2022-07-22T01:19:18;5.15;;;4.65;;
46757;SDS011;32509;47.750;-3.396;2022-07-22T01:21:44;5.97;;;4.75;;
46757;SDS011;32509;47.750;-3.396;2022-07-22T01:24:10;7.20;;;4.90;;
46757;SDS011;32509;47.750;-3.396;2022-07-22T01:26:35;5.22;;;4.65;;
46757;SDS011;32509;47.750;-3.396;2022-07-22T01:29:01;5.10;;;4.60;;
46757;SDS011;32509;47.750;-3.396;2022-07-22T01:31:28;5.07;;;4.38;;
46757;SDS011;32509;47.750;-3.396;2022-07-22T01:33:54;8.23;;;4.70;;
46757;SDS011;32509;47.750;-3.396;2022-07-22T01:36:21;5.30;;;4.60;;
46757;SDS011;32509;47.750;-3.396;2022-07-22T01:38:47;4.13;;;3.80;;
46757;SDS011;32509;47.750;-3.396;2022-07-22T01:41:12;6.45;;;4.63;;
46757;SDS011;32509;47.750;-3.396;2022-07-22T01:43:38;5.03;;;4.60;;
46757;SDS011;32509;47.750;-3.396;2022-07-22T01:46:04;5.70;;;4.63;;
46757;SDS011;32509;47.750;-3.396;2022-07-22T01:48:31;5.00;;;4.63;;
46757;SDS011;32509;47.750;-3.396;2022-07-22T01:50:57;5.53;;;4.88;;
46757;SDS011;32509;47.750;-3.396;2022-07-22T01:53:23;4.80;;;4.40;;
46757;SDS011;32509;47.750;-3.396;2022-07-22T01:55:49;5.88;;;4.38;;
46757;SDS011;32509;47.750;-3.396;2022-07-22T01:58:15;6.82;;;5.10;;
46757;SDS011;32509;47.750;-3.396;2022-07-22T02:00:41;6.70;;;4.63;;
46757;SDS011;32509;47.750;-3.396;2022-07-22T02:03:07;9.07;;;5.45;;
46757;SDS011;32509;47.750;-3.396;2022-07-22T02:05:33;7.63;;;6.07;;
46757;SDS011;32509;47.750;-3.396;2022-07-22T02:07:59;5.80;;;5.03;;
46757;SDS011;32509;47.750;-3.396;2022-07-22T02:10:29;5.10;;;4.60;;
46757;SDS011;32509;47.750;-3.396;2022-07-22T02:12:56;7.22;;;4.55;;
46757;SDS011;32509;47.750;-3.396;2022-07-22T02:15:22;6.10;;;5.35;;
46757;SDS011;32509;47.750;-3.396;2022-07-22T02:17:48;7.72;;;5.43;;
46757;SDS011;32509;47.750;-3.396;2022-07-22T02:20:14;6.95;;;5.70;;
46757;SDS011;32509;47.750;-3.396;2022-07-22T02:22:40;6.53;;;5.47;;
46757;SDS011;32509;47.750;-3.396;2022-07-22T02:25:06;5.75;;;4.47;;
46757;SDS011;32509;47.750;-3.396;2022-07-22T02:27:32;6.93;;;5.65;;
46757;SDS011;32509;47.750;-3.396;2022-07-22T02:29:58;5.10;;;4.60;;
46757;SDS011;32509;47.750;-3.396;2022-07-22T02:32:23;5.10;;;4.60;;
46757;SDS011;32509;47.750;-3.396;2022-07-22T02:34:49;6.35;;;5.07;;
46757;SDS011;32509;47.750;-3.396;2022-07-22T02:37:15;7.70;;;5.10;;
46757;SDS011;32509;47.750;-3.396;2022-07-22T02:39:41;6.43;;;5.13;;
46757;SDS011;32509;47.750;-3.396;2022-07-22T02:42:06;5.20;;;4.70;;
46757;SDS011;32509;47.750;-3.396;2022-07-22T02:44:32;7.47;;;4.90;;
46757;SDS011;32509;47.750;-3.396;2022-07-22T02:46:58;5.78;;;4.28;;
46757;SDS011;32509;47.750;-3.396;2022-07-22T02:49:24;9.35;;;5.00;;
46757;SDS011;32509;47.750;-3.396;2022-07-22T02:51:49;6.00;;;5.40;;
46757;SDS011;32509;47.750;-3.396;2022-07-22T02:54:15;6.05;;;5.35;;
46757;SDS011;32509;47.750;-3.396;2022-07-22T02:56:41;4.80;;;4.40;;
46757;SDS011;32509;47.750;-3.396;2022-07-22T02:59:07;6.15;;;5.00;;
46757;SDS011;32509;47.750;-3.396;2022-07-22T03:01:32;8.48;;;4.75;;
46757;SDS011;32509;47.750;-3.396;2022-07-22T03:03:58;7.28;;;4.35;;
46757;SDS011;32509;47.750;-3.396;2022-07-22T03:06:24;5.55;;;4.45;;
46757;SDS011;32509;47.750;-3.396;2022-07-22T03:08:50;7.60;;;4.80;;
46757;SDS011;32509;47.750;-3.396;2022-07-22T03:11:15;5.65;;;4.78;;
46757;SDS011;32509;47.750;-3.396;2022-07-22T03:13:41;6.68;;;5.00;;
46757;SDS011;32509;47.750;-3.396;2022-07-22T03:16:07;7.00;;;4.68;;
46757;SDS011;32509;47.750;-3.396;2022-07-22T03:18:33;5.00;;;3.97;;
46757;SDS011;32509;47.750;-3.396;2022-07-22T03:21:00;4.40;;;4.00;;
46757;SDS011;32509;47.750;-3.396;2022-07-22T03:23:25;8.05;;;5.18;;
46757;SDS011;32509;47.750;-3.396;2022-07-22T03:25:51;5.30;;;4.75;;
46757;SDS011;32509;47.750;-3.396;2022-07-22T03:28:17;4.38;;;3.97;;
46757;SDS011;32509;47.750;-3.396;2022-07-22T03:30:43;5.80;;;4.35;;
46757;SDS011;32509;47.750;-3.396;2022-07-22T03:33:08;4.80;;;4.18;;
46757;SDS011;32509;47.750;-3.396;2022-07-22T03:35:34;6.82;;;4.45;;
46757;SDS011;32509;47.750;-3.396;2022-07-22T03:38:00;5.93;;;4.57;;
46757;SDS011;32509;47.750;-3.396;2022-07-22T03:40:27;4.85;;;4.00;;
46757;SDS011;32509;47.750;-3.396;2022-07-22T03:42:52;7.75;;;4.07;;
46757;SDS011;32509;47.750;-3.396;2022-07-22T03:45:18;5.65;;;4.93;;
46757;SDS011;32509;47.750;-3.396;2022-07-22T03:47:44;7.20;;;4.47;;
46757;SDS011;32509;47.750;-3.396;2022-07-22T03:50:10;5.75;;;4.85;;
46757;SDS011;32509;47.750;-3.396;2022-07-22T03:52:35;5.60;;;4.95;;
46757;SDS011;32509;47.750;-3.396;2022-07-22T03:55:01;5.78;;;4.43;;
46757;SDS011;32509;47.750;-3.396;2022-07-22T03:57:28;6.28;;;5.53;;
46757;SDS011;32509;47.750;-3.396;2022-07-22T03:59:54;6.03;;;5.43;;
46757;SDS011;32509;47.750;-3.396;2022-07-22T04:02:20;8.70;;;5.30;;
46757;SDS011;32509;47.750;-3.396;2022-07-22T04:04:45;5.32;;;4.88;;
46757;SDS011;32509;47.750;-3.396;2022-07-22T04:07:11;7.68;;;5.45;;
46757;SDS011;32509;47.750;-3.396;2022-07-22T04:09:37;8.20;;;6.10;;
46757;SDS011;32509;47.750;-3.396;2022-07-22T04:12:03;6.20;;;4.97;;
46757;SDS011;32509;47.750;-3.396;2022-07-22T04:14:29;5.97;;;5.38;;
46757;SDS011;32509;47.750;-3.396;2022-07-22T04:16:55;8.35;;;5.22;;
46757;SDS011;32509;47.750;-3.396;2022-07-22T04:19:21;6.80;;;5.55;;
46757;SDS011;32509;47.750;-3.396;2022-07-22T04:21:47;8.05;;;5.32;;
46757;SDS011;32509;47.750;-3.396;2022-07-22T04:24:12;12.43;;;4.82;;
46757;SDS011;32509;47.750;-3.396;2022-07-22T04:26:39;6.97;;;4.90;;
46757;SDS011;32509;47.750;-3.396;2022-07-22T04:29:04;7.13;;;4.47;;
46757;SDS011;32509;47.750;-3.396;2022-07-22T04:31:31;6.97;;;5.13;;
46757;SDS011;32509;47.750;-3.396;2022-07-22T04:33:57;10.48;;;4.80;;
46757;SDS011;32509;47.750;-3.396;2022-07-22T04:36:23;8.23;;;5.20;;
46757;SDS011;32509;47.750;-3.396;2022-07-22T04:38:49;6.43;;;4.70;;
46757;SDS011;32509;47.750;-3.396;2022-07-22T04:41:16;10.82;;;4.70;;
46757;SDS011;32509;47.750;-3.396;2022-07-22T04:43:42;4.63;;;3.90;;
46757;SDS011;32509;47.750;-3.396;2022-07-22T04:46:08;6.55;;;4.43;;
46757;SDS011;32509;47.750;-3.396;2022-07-22T04:48:33;6.55;;;4.20;;
46757;SDS011;32509;47.750;-3.396;2022-07-22T04:51:02;5.10;;;4.28;;
46757;SDS011;32509;47.750;-3.396;2022-07-22T04:53:28;5.43;;;4.50;;
46757;SDS011;32509;47.750;-3.396;2022-07-22T04:55:54;10.30;;;5.35;;
46757;SDS011;32509;47.750;-3.396;2022-07-22T04:58:20;9.98;;;4.65;;
46757;SDS011;32509;47.750;-3.396;2022-07-22T05:00:46;5.78;;;4.28;;
46757;SDS011;32509;47.750;-3.396;2022-07-22T05:03:13;9.38;;;5.07;;
46757;SDS011;32509;47.750;-3.396;2022-07-22T05:05:39;9.98;;;5.05;;
46757;SDS011;32509;47.750;-3.396;2022-07-22T05:08:05;5.35;;;4.45;;
46757;SDS011;32509;47.750;-3.396;2022-07-22T05:10:31;4.50;;;4.05;;
46757;SDS011;32509;47.750;-3.396;2022-07-22T05:12:57;8.05;;;5.22;;
46757;SDS011;32509;47.750;-3.396;2022-07-22T05:15:23;9.30;;;4.45;;
46757;SDS011;32509;47.750;-3.396;2022-07-22T05:17:49;5.65;;;4.60;;
46757;SDS011;32509;47.750;-3.396;2022-07-22T05:20:15;5.28;;;4.55;;
46757;SDS011;32509;47.750;-3.396;2022-07-22T05:22:42;5.03;;;4.22;;
46757;SDS011;32509;47.750;-3.396;2022-07-22T05:25:07;4.40;;;4.05;;
46757;SDS011;32509;47.750;-3.396;2022-07-22T05:27:34;9.32;;;5.60;;
46757;SDS011;32509;47.750;-3.396;2022-07-22T05:29:59;5.05;;;4.10;;
46757;SDS011;32509;47.750;-3.396;2022-07-22T05:32:25;8.82;;;4.78;;
46757;SDS011;32509;47.750;-3.396;2022-07-22T05:34:51;7.65;;;5.03;;
46757;SDS011;32509;47.750;-3.396;2022-07-22T05:37:17;5.65;;;5.15;;
46757;SDS011;32509;47.750;-3.396;2022-07-22T05:39:43;4.90;;;4.50;;
46757;SDS011;32509;47.750;-3.396;2022-07-22T05:42:09;6.22;;;3.92;;
46757;SDS011;32509;47.750;-3.396;2022-07-22T05:44:35;6.72;;;4.97;;
46757;SDS011;32509;47.750;-3.396;2022-07-22T05:47:00;6.18;;;4.38;;
46757;SDS011;32509;47.750;-3.396;2022-07-22T05:49:26;6.18;;;4.80;;
46757;SDS011;32509;47.750;-3.396;2022-07-22T05:51:52;7.60;;;5.30;;
46757;SDS011;32509;47.750;-3.396;2022-07-22T05:54:19;6.47;;;4.80;;
46757;SDS011;32509;47.750;-3.396;2022-07-22T05:56:45;9.15;;;5.60;;
46757;SDS011;32509;47.750;-3.396;2022-07-22T05:59:11;5.35;;;4.72;;
46757;SDS011;32509;47.750;-3.396;2022-07-22T06:01:36;6.97;;;5.10;;
46757;SDS011;32509;47.750;-3.396;2022-07-22T06:04:02;8.25;;;4.95;;
46757;SDS011;32509;47.750;-3.396;2022-07-22T06:06:28;8.25;;;4.75;;
46757;SDS011;32509;47.750;-3.396;2022-07-22T06:08:54;7.15;;;5.25;;
46757;SDS011;32509;47.750;-3.396;2022-07-22T06:11:20;5.35;;;4.43;;
46757;SDS011;32509;47.750;-3.396;2022-07-22T06:13:46;5.72;;;5.20;;
46757;SDS011;32509;47.750;-3.396;2022-07-22T06:16:11;5.00;;;4.45;;
46757;SDS011;32509;47.750;-3.396;2022-07-22T06:18:37;6.55;;;5.10;;
46757;SDS011;32509;47.750;-3.396;2022-07-22T06:21:03;4.80;;;4.40;;
46757;SDS011;32509;47.750;-3.396;2022-07-22T06:23:30;5.88;;;5.30;;
46757;SDS011;32509;47.750;-3.396;2022-07-22T06:25:56;5.97;;;4.47;;
46757;SDS011;32509;47.750;-3.396;2022-07-22T06:28:22;7.25;;;5.00;;
46757;SDS011;32509;47.750;-3.396;2022-07-22T06:30:47;5.00;;;3.90;;
46757;SDS011;32509;47.750;-3.396;2022-07-22T06:33:13;6.18;;;4.38;;
46757;SDS011;32509;47.750;-3.396;2022-07-22T06:35:39;5.03;;;3.30;;
46757;SDS011;32509;47.750;-3.396;2022-07-22T06:38:05;6.95;;;4.53;;
46757;SDS011;32509;47.750;-3.396;2022-07-22T06:40:31;12.40;;;4.97;;
46757;SDS011;32509;47.750;-3.396;2022-07-22T06:42:58;5.68;;;3.90;;
46757;SDS011;32509;47.750;-3.396;2022-07-22T06:45:24;5.35;;;3.42;;
46757;SDS011;32509;47.750;-3.396;2022-07-22T06:47:50;5.43;;;3.83;;
46757;SDS011;32509;47.750;-3.396;2022-07-22T06:50:15;9.50;;;3.92;;
46757;SDS011;32509;47.750;-3.396;2022-07-22T06:52:41;4.13;;;3.08;;
46757;SDS011;32509;47.750;-3.396;2022-07-22T06:55:08;3.70;;;3.40;;
46757;SDS011;32509;47.750;-3.396;2022-07-22T06:57:34;7.13;;;4.15;;
46757;SDS011;32509;47.750;-3.396;2022-07-22T07:00:00;6.63;;;3.33;;
46757;SDS011;32509;47.750;-3.396;2022-07-22T07:02:28;14.68;;;4.22;;
46757;SDS011;32509;47.750;-3.396;2022-07-22T07:04:54;21.98;;;4.60;;
46757;SDS011;32509;47.750;-3.396;2022-07-22T07:07:23;16.95;;;4.97;;
46757;SDS011;32509;47.750;-3.396;2022-07-22T07:09:48;4.53;;;2.70;;
46757;SDS011;32509;47.750;-3.396;2022-07-22T07:12:14;7.38;;;3.30;;
46757;SDS011;32509;47.750;-3.396;2022-07-22T07:14:40;6.05;;;2.92;;
46757;SDS011;32509;47.750;-3.396;2022-07-22T07:17:06;20.23;;;5.07;;
46757;SDS011;32509;47.750;-3.396;2022-07-22T07:19:31;18.42;;;4.43;;
46757;SDS011;32509;47.750;-3.396;2022-07-22T07:21:57;22.10;;;5.15;;
46757;SDS011;32509;47.750;-3.396;2022-07-22T07:24:23;8.57;;;4.28;;
46757;SDS011;32509;47.750;-3.396;2022-07-22T07:26:49;26.02;;;5.55;;
46757;SDS011;32509;47.750;-3.396;2022-07-22T07:29:14;11.68;;;3.33;;
46757;SDS011;32509;47.750;-3.396;2022-07-22T07:31:40;5.65;;;3.50;;
46757;SDS011;32509;47.750;-3.396;2022-07-22T07:34:06;8.90;;;3.38;;
46757;SDS011;32509;47.750;-3.396;2022-07-22T07:36:31;8.40;;;2.90;;
46757;SDS011;32509;47.750;-3.396;2022-07-22T07:38:57;5.15;;;2.80;;
46757;SDS011;32509;47.750;-3.396;2022-07-22T07:41:23;5.00;;;2.95;;
46757;SDS011;32509;47.750;-3.396;2022-07-22T07:43:49;6.03;;;2.42;;
46757;SDS011;32509;47.750;-3.396;2022-07-22T07:46:15;5.88;;;2.50;;
46757;SDS011;32509;47.750;-3.396;2022-07-22T07:48:41;5.28;;;2.70;;
46757;SDS011;32509;47.750;-3.396;2022-07-22T07:51:06;4.63;;;2.22;;
46757;SDS011;32509;47.750;-3.396;2022-07-22T07:53:32;7.15;;;2.67;;
46757;SDS011;32509;47.750;-3.396;2022-07-22T07:55:58;5.18;;;2.83;;
46757;SDS011;32509;47.750;-3.396;2022-07-22T07:58:24;8.13;;;3.00;;
46757;SDS011;32509;47.750;-3.396;2022-07-22T08:00:50;5.78;;;3.03;;
46757;SDS011;32509;47.750;-3.396;2022-07-22T08:03:16;9.18;;;3.35;;
46757;SDS011;32509;47.750;-3.396;2022-07-22T08:05:41;6.38;;;3.13;;
46757;SDS011;32509;47.750;-3.396;2022-07-22T08:08:08;7.38;;;2.50;;
46757;SDS011;32509;47.750;-3.396;2022-07-22T08:10:34;7.07;;;2.92;;
46757;SDS011;32509;47.750;-3.396;2022-07-22T08:12:59;5.07;;;2.72;;
46757;SDS011;32509;47.750;-3.396;2022-07-22T08:15:26;4.75;;;2.72;;
46757;SDS011;32509;47.750;-3.396;2022-07-22T08:17:52;3.70;;;2.78;;
46757;SDS011;32509;47.750;-3.396;2022-07-22T08:20:18;6.18;;;3.20;;
46757;SDS011;32509;47.750;-3.396;2022-07-22T08:22:44;3.70;;;2.60;;
46757;SDS011;32509;47.750;-3.396;2022-07-22T08:25:10;3.10;;;2.13;;
46757;SDS011;32509;47.750;-3.396;2022-07-22T08:27:36;5.63;;;2.63;;
46757;SDS011;32509;47.750;-3.396;2022-07-22T08:30:02;4.72;;;2.67;;
46757;SDS011;32509;47.750;-3.396;2022-07-22T08:32:30;3.10;;;2.30;;
46757;SDS011;32509;47.750;-3.396;2022-07-22T08:34:57;3.90;;;2.33;;
46757;SDS011;32509;47.750;-3.396;2022-07-22T08:37:22;9.25;;;3.00;;
46757;SDS011;32509;47.750;-3.396;2022-07-22T08:39:49;3.35;;;2.65;;
46757;SDS011;32509;47.750;-3.396;2022-07-22T08:42:15;8.13;;;2.75;;
46757;SDS011;32509;47.750;-3.396;2022-07-22T08:44:41;6.13;;;2.63;;
46757;SDS011;32509;47.750;-3.396;2022-07-22T08:47:06;3.92;;;2.10;;
46757;SDS011;32509;47.750;-3.396;2022-07-22T08:49:32;7.40;;;2.80;;
46757;SDS011;32509;47.750;-3.396;2022-07-22T08:51:58;5.60;;;2.85;;
46757;SDS011;32509;47.750;-3.396;2022-07-22T08:54:24;3.47;;;2.40;;
46757;SDS011;32509;47.750;-3.396;2022-07-22T08:56:50;7.00;;;2.67;;
46757;SDS011;32509;47.750;-3.396;2022-07-22T08:59:17;4.60;;;2.20;;
46757;SDS011;32509;47.750;-3.396;2022-07-22T09:02:03;5.38;;;2.40;;
46757;SDS011;32509;47.750;-3.396;2022-07-22T09:04:30;3.25;;;1.90;;
46757;SDS011;32509;47.750;-3.396;2022-07-22T09:06:57;6.18;;;2.72;;
46757;SDS011;32509;47.750;-3.396;2022-07-22T09:09:33;6.95;;;3.20;;
46757;SDS011;32509;47.750;-3.396;2022-07-22T09:12:06;5.47;;;2.60;;
46757;SDS011;32509;47.750;-3.396;2022-07-22T09:14:43;7.32;;;2.83;;
46757;SDS011;32509;47.750;-3.396;2022-07-22T09:17:22;4.55;;;2.42;;
46757;SDS011;32509;47.750;-3.396;2022-07-22T09:19:50;6.22;;;2.60;;
46757;SDS011;32509;47.750;-3.396;2022-07-22T09:28:08;2.70;;;2.28;;
46757;SDS011;32509;47.750;-3.396;2022-07-22T09:30:37;4.65;;;2.33;;
46757;SDS011;32509;47.750;-3.396;2022-07-22T09:33:04;6.35;;;2.90;;
46757;SDS011;32509;47.750;-3.396;2022-07-22T09:35:31;7.35;;;2.25;;
46757;SDS011;32509;47.750;-3.396;2022-07-22T09:38:02;4.30;;;2.30;;
46757;SDS011;32509;47.750;-3.396;2022-07-22T09:40:52;3.75;;;2.42;;
46757;SDS011;32509;47.750;-3.396;2022-07-22T09:43:19;5.13;;;2.28;;
46757;SDS011;32509;47.750;-3.396;2022-07-22T09:45:49;3.67;;;2.38;;
46757;SDS011;32509;47.750;-3.396;2022-07-22T09:48:20;4.88;;;2.20;;
46757;SDS011;32509;47.750;-3.396;2022-07-22T09:50:47;5.75;;;2.55;;
46757;SDS011;32509;47.750;-3.396;2022-07-22T09:53:14;4.40;;;2.25;;
46757;SDS011;32509;47.750;-3.396;2022-07-22T09:55:42;5.63;;;2.30;;
46757;SDS011;32509;47.750;-3.396;2022-07-22T09:58:07;6.78;;;2.65;;
46757;SDS011;32509;47.750;-3.396;2022-07-22T10:00:34;6.55;;;2.75;;
46757;SDS011;32509;47.750;-3.396;2022-07-22T10:03:02;4.40;;;2.28;;
46757;SDS011;32509;47.750;-3.396;2022-07-22T10:05:36;8.15;;;2.67;;
46757;SDS011;32509;47.750;-3.396;2022-07-22T10:08:03;3.33;;;2.42;;
46757;SDS011;32509;47.750;-3.396;2022-07-22T10:10:31;5.70;;;2.10;;
46757;SDS011;32509;47.750;-3.396;2022-07-22T10:12:58;6.22;;;2.65;;
46757;SDS011;32509;47.750;-3.396;2022-07-22T10:15:26;4.57;;;2.50;;
46757;SDS011;32509;47.750;-3.396;2022-07-22T10:17:55;2.63;;;2.33;;
46757;SDS011;32509;47.750;-3.396;2022-07-22T10:20:26;7.63;;;3.20;;
46757;SDS011;32509;47.750;-3.396;2022-07-22T10:22:58;3.20;;;2.10;;
46757;SDS011;32509;47.750;-3.396;2022-07-22T10:25:26;5.10;;;2.50;;
46757;SDS011;32509;47.750;-3.396;2022-07-22T10:28:01;6.80;;;3.17;;
46757;SDS011;32509;47.750;-3.396;2022-07-22T10:30:30;5.07;;;2.35;;
46757;SDS011;32509;47.750;-3.396;2022-07-22T10:35:30;3.80;;;2.20;;
46757;SDS011;32509;47.750;-3.396;2022-07-22T10:37:59;5.57;;;2.97;;
46757;SDS011;32509;47.750;-3.396;2022-07-22T10:40:30;7.50;;;2.10;;
46757;SDS011;32509;47.750;-3.396;2022-07-22T10:43:11;5.00;;;2.55;;
46757;SDS011;32509;47.750;-3.396;2022-07-22T10:45:44;2.88;;;2.45;;
46757;SDS011;32509;47.750;-3.396;2022-07-22T10:48:13;6.10;;;2.35;;
46757;SDS011;32509;47.750;-3.396;2022-07-22T10:50:42;3.53;;;2.10;;
46757;SDS011;32509;47.750;-3.396;2022-07-22T10:53:10;6.07;;;2.35;;
46757;SDS011;32509;47.750;-3.396;2022-07-22T10:55:37;3.42;;;2.45;;
46757;SDS011;32509;47.750;-3.396;2022-07-22T11:01:01;5.90;;;3.05;;
46757;SDS011;32509;47.750;-3.396;2022-07-22T11:03:29;4.60;;;2.35;;
46757;SDS011;32509;47.750;-3.396;2022-07-22T11:05:56;3.20;;;2.72;;
46757;SDS011;32509;47.750;-3.396;2022-07-22T11:08:37;4.18;;;2.67;;
46757;SDS011;32509;47.750;-3.396;2022-07-22T11:11:03;4.28;;;2.75;;
46757;SDS011;32509;47.750;-3.396;2022-07-22T11:13:33;4.55;;;3.08;;
46757;SDS011;32509;47.750;-3.396;2022-07-22T11:16:13;9.00;;;3.03;;
46757;SDS011;32509;47.750;-3.396;2022-07-22T11:18:53;7.30;;;3.25;;
46757;SDS011;32509;47.750;-3.396;2022-07-22T11:21:22;5.57;;;2.63;;
46757;SDS011;32509;47.750;-3.396;2022-07-22T11:23:50;3.53;;;2.83;;
46757;SDS011;32509;47.750;-3.396;2022-07-22T11:26:20;4.28;;;2.50;;
46757;SDS011;32509;47.750;-3.396;2022-07-22T11:28:56;3.25;;;2.85;;
46757;SDS011;32509;47.750;-3.396;2022-07-22T11:31:22;4.40;;;3.05;;
46757;SDS011;32509;47.750;-3.396;2022-07-22T11:33:48;5.10;;;2.83;;
46757;SDS011;32509;47.750;-3.396;2022-07-22T11:36:14;5.60;;;2.60;;
46757;SDS011;32509;47.750;-3.396;2022-07-22T11:38:44;5.03;;;2.35;;
46757;SDS011;32509;47.750;-3.396;2022-07-22T11:41:17;4.00;;;2.67;;
46757;SDS011;32509;47.750;-3.396;2022-07-22T11:43:45;2.83;;;2.60;;
46757;SDS011;32509;47.750;-3.396;2022-07-22T11:46:15;4.60;;;2.70;;
46757;SDS011;32509;47.750;-3.396;2022-07-22T11:48:43;6.78;;;2.60;;
46757;SDS011;32509;47.750;-3.396;2022-07-22T11:51:10;5.25;;;2.65;;
46757;SDS011;32509;47.750;-3.396;2022-07-22T11:53:38;5.72;;;2.90;;
46757;SDS011;32509;47.750;-3.396;2022-07-22T11:56:05;4.85;;;3.40;;
46757;SDS011;32509;47.750;-3.396;2022-07-22T11:58:52;6.57;;;2.80;;
46757;SDS011;32509;47.750;-3.396;2022-07-22T12:01:19;5.07;;;2.47;;
46757;SDS011;32509;47.750;-3.396;2022-07-22T12:03:50;3.80;;;2.67;;
46757;SDS011;32509;47.750;-3.396;2022-07-22T12:06:19;10.75;;;3.17;;
46757;SDS011;32509;47.750;-3.396;2022-07-22T12:08:48;3.33;;;2.95;;
46757;SDS011;32509;47.750;-3.396;2022-07-22T12:11:16;4.55;;;2.50;;
46757;SDS011;32509;47.750;-3.396;2022-07-22T12:13:44;4.40;;;2.92;;
46757;SDS011;32509;47.750;-3.396;2022-07-22T12:16:18;4.68;;;2.78;;
46757;SDS011;32509;47.750;-3.396;2022-07-22T12:18:56;3.83;;;2.92;;
46757;SDS011;32509;47.750;-3.396;2022-07-22T12:21:33;6.47;;;3.63;;
46757;SDS011;32509;47.750;-3.396;2022-07-22T12:24:02;7.30;;;3.25;;
46757;SDS011;32509;47.750;-3.396;2022-07-22T12:32:37;4.15;;;2.75;;
46757;SDS011;32509;47.750;-3.396;2022-07-22T12:34:42;4.30;;;2.97;;
46757;SDS011;32509;47.750;-3.396;2022-07-22T12:37:16;6.28;;;2.80;;
46757;SDS011;32509;47.750;-3.396;2022-07-22T12:42:47;3.65;;;2.50;;
46757;SDS011;32509;47.750;-3.396;2022-07-22T12:45:33;8.43;;;3.00;;
46757;SDS011;32509;47.750;-3.396;2022-07-22T12:50:44;7.40;;;3.60;;
46757;SDS011;32509;47.750;-3.396;2022-07-22T12:53:21;7.17;;;3.20;;
46757;SDS011;32509;47.750;-3.396;2022-07-22T12:55:52;3.70;;;2.53;;
46757;SDS011;32509;47.750;-3.396;2022-07-22T12:58:27;4.63;;;2.92;;
46757;SDS011;32509;47.750;-3.396;2022-07-22T13:00:58;4.03;;;2.97;;
46757;SDS011;32509;47.750;-3.396;2022-07-22T13:03:26;7.97;;;2.20;;
46757;SDS011;32509;47.750;-3.396;2022-07-22T13:05:57;5.15;;;2.55;;
46757;SDS011;32509;47.750;-3.396;2022-07-22T13:08:24;4.53;;;2.00;;
46757;SDS011;32509;47.750;-3.396;2022-07-22T13:10:50;2.45;;;2.25;;
46757;SDS011;32509;47.750;-3.396;2022-07-22T13:13:17;6.47;;;3.10;;
46757;SDS011;32509;47.750;-3.396;2022-07-22T13:15:43;5.63;;;2.50;;
46757;SDS011;32509;47.750;-3.396;2022-07-22T13:18:09;6.18;;;2.65;;
46757;SDS011;32509;47.750;-3.396;2022-07-22T13:20:35;5.68;;;2.47;;
46757;SDS011;32509;47.750;-3.396;2022-07-22T13:23:01;4.07;;;2.05;;
46757;SDS011;32509;47.750;-3.396;2022-07-22T13:25:27;3.47;;;2.65;;
46757;SDS011;32509;47.750;-3.396;2022-07-22T13:27:53;7.65;;;2.45;;
46757;SDS011;32509;47.750;-3.396;2022-07-22T13:30:20;4.22;;;2.33;;
46757;SDS011;32509;47.750;-3.396;2022-07-22T13:32:46;3.75;;;2.65;;
46757;SDS011;32509;47.750;-3.396;2022-07-22T13:35:12;7.28;;;2.85;;
46757;SDS011;32509;47.750;-3.396;2022-07-22T13:37:38;8.52;;;2.88;;
46757;SDS011;32509;47.750;-3.396;2022-07-22T13:40:03;4.25;;;2.78;;
46757;SDS011;32509;47.750;-3.396;2022-07-22T13:42:30;5.32;;;2.65;;
46757;SDS011;32509;47.750;-3.396;2022-07-22T13:44:56;6.75;;;2.28;;
46757;SDS011;32509;47.750;-3.396;2022-07-22T13:47:22;6.03;;;3.03;;
46757;SDS011;32509;47.750;-3.396;2022-07-22T13:49:48;4.68;;;2.65;;
46757;SDS011;32509;47.750;-3.396;2022-07-22T13:52:14;5.20;;;2.13;;
46757;SDS011;32509;47.750;-3.396;2022-07-22T13:54:41;5.63;;;2.33;;
46757;SDS011;32509;47.750;-3.396;2022-07-22T13:57:07;3.45;;;2.45;;
46757;SDS011;32509;47.750;-3.396;2022-07-22T13:59:34;6.30;;;2.38;;
46757;SDS011;32509;47.750;-3.396;2022-07-22T14:02:01;6.07;;;2.55;;
46757;SDS011;32509;47.750;-3.396;2022-07-22T14:04:27;2.53;;;2.22;;
46757;SDS011;32509;47.750;-3.396;2022-07-22T14:06:53;2.72;;;1.83;;
46757;SDS011;32509;47.750;-3.396;2022-07-22T14:09:19;3.85;;;1.83;;
46757;SDS011;32509;47.750;-3.396;2022-07-22T14:11:45;3.47;;;1.98;;
46757;SDS011;32509;47.750;-3.396;2022-07-22T14:14:10;3.60;;;1.83;;
46757;SDS011;32509;47.750;-3.396;2022-07-22T14:16:37;5.72;;;2.05;;
46757;SDS011;32509;47.750;-3.396;2022-07-22T14:21:33;1.73;;;1.50;;
46757;SDS011;32509;47.750;-3.396;2022-07-22T14:24:00;5.25;;;2.47;;
46757;SDS011;32509;47.750;-3.396;2022-07-22T14:26:27;3.33;;;1.88;;
46757;SDS011;32509;47.750;-3.396;2022-07-22T14:28:53;2.00;;;1.70;;
46757;SDS011;32509;47.750;-3.396;2022-07-22T14:31:20;2.58;;;1.85;;
46757;SDS011;32509;47.750;-3.396;2022-07-22T14:33:46;4.70;;;1.95;;
46757;SDS011;32509;47.750;-3.396;2022-07-22T14:36:12;2.60;;;1.90;;
46757;SDS011;32509;47.750;-3.396;2022-07-22T14:38:39;2.72;;;1.75;;
46757;SDS011;32509;47.750;-3.396;2022-07-22T14:41:05;3.70;;;2.08;;
46757;SDS011;32509;47.750;-3.396;2022-07-22T14:43:32;5.60;;;1.50;;
46757;SDS011;32509;47.750;-3.396;2022-07-22T14:45:59;5.70;;;1.67;;
46757;SDS011;32509;47.750;-3.396;2022-07-22T14:48:26;3.00;;;1.55;;
46757;SDS011;32509;47.750;-3.396;2022-07-22T14:50:53;4.55;;;1.23;;
46757;SDS011;32509;47.750;-3.396;2022-07-22T14:53:19;2.40;;;1.42;;
46757;SDS011;32509;47.750;-3.396;2022-07-22T14:55:45;2.40;;;1.60;;
46757;SDS011;32509;47.750;-3.396;2022-07-22T14:58:11;5.60;;;1.40;;
46757;SDS011;32509;47.750;-3.396;2022-07-22T15:00:36;2.80;;;1.30;;